Time;durP1;ratioP1;P1;durP2;ratioP2;P2;SDS_P1;SDS_P2;PMS_P1;PMS_P2;Temp;Humidity;BMP_temperature;BMP_pressure;BME280_temperature;BME280_humidity;BME280_pressure;Samples;Min_cycle;Max_cycle;Signal;HPM_P1;HPM_P2
2023/05/23 00:00:28;;;;;;;18.20;10.88;;;20.10;99.90;;;;;;5054397;28;20021;-86
2023/05/23 00:02:54;;;;;;;19.73;11.45;;;20.10;99.90;;;;;;5054927;28;20025;-86
2023/05/23 00:05:19;;;;;;;19.40;11.35;;;20.10;99.90;;;;;;5055620;28;20378;-86
2023/05/23 00:07:45;;;;;;;19.58;11.52;;;20.10;99.90;;;;;;5054468;28;20025;-85
2023/05/23 00:10:13;;;;;;;17.98;11.10;;;20.00;99.90;;;;;;5055896;28;20039;-85
2023/05/23 00:12:41;;;;;;;18.95;11.50;;;20.00;99.90;;;;;;5054995;28;20017;-84
2023/05/23 00:15:08;;;;;;;18.85;10.75;;;20.00;99.90;;;;;;5054445;28;20048;-85
2023/05/23 00:17:36;;;;;;;17.23;10.63;;;20.00;99.90;;;;;;5053021;28;20036;-86
2023/05/23 00:20:02;;;;;;;18.90;11.90;;;20.00;99.90;;;;;;5054021;28;20033;-86
2023/05/23 00:22:28;;;;;;;20.30;11.77;;;20.00;99.90;;;;;;5053926;28;20040;-86
2023/05/23 00:24:56;;;;;;;17.15;11.02;;;20.00;99.90;;;;;;5054489;28;20037;-86
2023/05/23 00:27:22;;;;;;;18.63;10.60;;;19.90;99.90;;;;;;5053322;28;20025;-87
2023/05/23 00:29:48;;;;;;;19.23;10.75;;;19.90;99.90;;;;;;5053921;28;20090;-86
2023/05/23 00:32:13;;;;;;;15.98;10.82;;;19.90;99.90;;;;;;5053983;28;20037;-87
2023/05/23 00:34:39;;;;;;;21.80;12.02;;;19.80;99.90;;;;;;5053437;28;20028;-84
2023/05/23 00:37:04;;;;;;;21.55;10.65;;;19.80;99.90;;;;;;5053663;28;20063;-84
2023/05/23 00:39:30;;;;;;;16.88;10.40;;;19.80;99.90;;;;;;5054551;28;20477;-83
2023/05/23 00:41:56;;;;;;;17.80;10.52;;;19.80;99.90;;;;;;5053928;28;20025;-83
2023/05/23 00:44:22;;;;;;;14.10;10.13;;;19.80;99.90;;;;;;5052981;28;20035;-86
2023/05/23 00:46:54;;;;;;;16.00;10.32;;;19.80;99.90;;;;;;5053574;28;20025;-83
2023/05/23 00:49:20;;;;;;;15.05;10.45;;;19.70;99.90;;;;;;5053628;28;20063;-85
2023/05/23 00:51:45;;;;;;;14.93;9.95;;;19.70;99.90;;;;;;5053485;28;20052;-83
2023/05/23 00:54:13;;;;;;;15.80;10.80;;;19.70;99.90;;;;;;5054510;28;20033;-83
2023/05/23 00:56:38;;;;;;;19.80;10.85;;;19.70;99.90;;;;;;5053958;28;20025;-83
2023/05/23 00:59:05;;;;;;;17.55;10.90;;;19.70;99.90;;;;;;5053273;28;20028;-82
2023/05/23 01:01:32;;;;;;;18.90;10.73;;;19.70;99.90;;;;;;5052352;28;20121;-83
2023/05/23 01:03:58;;;;;;;17.20;10.30;;;19.70;99.90;;;;;;5070088;28;20040;-83
2023/05/23 01:06:23;;;;;;;15.13;10.57;;;19.70;99.90;;;;;;5053814;28;20029;-85
2023/05/23 01:08:49;;;;;;;16.70;10.60;;;19.60;99.90;;;;;;5054466;28;20027;-83
2023/05/23 01:11:31;;;;;;;18.80;11.45;;;19.70;99.90;;;;;;5053584;28;20120;-85
2023/05/23 01:14:08;;;;;;;16.08;10.98;;;19.60;99.90;;;;;;5053225;28;20063;-84
2023/05/23 01:16:47;;;;;;;18.00;10.82;;;19.50;99.90;;;;;;5069540;28;20450;-85
2023/05/23 01:19:21;;;;;;;17.73;11.02;;;19.60;99.90;;;;;;5053223;28;20436;-84
2023/05/23 01:21:52;;;;;;;17.48;10.55;;;19.50;99.90;;;;;;5054027;28;20029;-84
2023/05/23 01:24:35;;;;;;;15.33;10.37;;;19.50;99.90;;;;;;5053878;28;20067;-83
2023/05/23 01:27:21;;;;;;;15.93;10.65;;;19.50;99.90;;;;;;5053069;28;20021;-88
2023/05/23 01:29:53;;;;;;;17.33;10.68;;;19.50;99.90;;;;;;5052849;28;20029;-89
2023/05/23 01:32:21;;;;;;;15.80;10.35;;;19.40;99.90;;;;;;5053034;28;20120;-87
2023/05/23 01:34:49;;;;;;;14.82;10.55;;;19.40;99.90;;;;;;5054039;28;20060;-86
2023/05/23 01:37:18;;;;;;;18.30;11.73;;;19.40;99.90;;;;;;5052944;28;20122;-86
2023/05/23 01:39:44;;;;;;;16.95;11.70;;;19.30;99.90;;;;;;5052373;28;20108;-83
2023/05/23 01:42:10;;;;;;;19.08;11.70;;;19.30;99.90;;;;;;5052883;28;20075;-84
2023/05/23 01:44:37;;;;;;;19.58;12.02;;;19.30;99.90;;;;;;5052506;28;20033;-85
2023/05/23 01:47:04;;;;;;;18.27;11.93;;;19.30;99.90;;;;;;5052780;28;20027;-84
2023/05/23 01:49:31;;;;;;;23.63;13.90;;;19.30;99.90;;;;;;5052660;28;20033;-83
2023/05/23 01:51:59;;;;;;;27.02;14.68;;;19.30;99.90;;;;;;5053066;28;20053;-83
2023/05/23 01:54:28;;;;;;;24.98;15.50;;;19.30;99.90;;;;;;5053810;28;20041;-85
2023/05/23 01:56:55;;;;;;;24.35;14.32;;;19.30;99.90;;;;;;5052754;28;20125;-85
2023/05/23 01:59:20;;;;;;;23.92;13.75;;;19.30;99.90;;;;;;5053079;28;20477;-84
2023/05/23 02:01:46;;;;;;;24.52;14.95;;;19.30;99.90;;;;;;5052335;28;20048;-86
2023/05/23 02:04:12;;;;;;;25.80;15.15;;;19.30;99.90;;;;;;5066504;28;20504;-83
2023/05/23 02:06:38;;;;;;;26.58;15.70;;;19.30;99.90;;;;;;5072098;28;20036;-84
2023/05/23 02:09:03;;;;;;;29.73;15.80;;;19.20;99.90;;;;;;5073710;28;20029;-84
2023/05/23 02:11:29;;;;;;;25.20;15.48;;;19.20;99.90;;;;;;5073302;28;20025;-85
2023/05/23 02:13:54;;;;;;;24.75;15.52;;;19.30;99.90;;;;;;5074236;28;20110;-86
2023/05/23 02:16:20;;;;;;;28.55;16.27;;;19.30;99.90;;;;;;5072490;28;20025;-82
2023/05/23 02:18:46;;;;;;;23.70;14.77;;;19.30;99.90;;;;;;5072386;28;20033;-82
2023/05/23 02:21:11;;;;;;;26.85;15.05;;;19.20;99.90;;;;;;5072830;28;20369;-84
2023/05/23 02:23:37;;;;;;;23.98;15.02;;;19.10;99.90;;;;;;5072302;28;20556;-84
2023/05/23 02:26:02;;;;;;;24.90;14.80;;;19.10;99.90;;;;;;5072896;28;20036;-85
2023/05/23 02:28:28;;;;;;;24.85;14.05;;;19.00;99.90;;;;;;5072482;28;20025;-87
2023/05/23 02:30:54;;;;;;;23.92;14.35;;;19.10;99.90;;;;;;5072994;28;20461;-86
2023/05/23 02:33:20;;;;;;;25.85;14.27;;;19.00;99.90;;;;;;5072945;28;20047;-86
2023/05/23 02:35:46;;;;;;;23.70;14.60;;;19.00;99.90;;;;;;5072156;28;20029;-84
2023/05/23 02:38:12;;;;;;;22.92;13.88;;;19.00;99.90;;;;;;5073934;28;20024;-84
2023/05/23 02:40:37;;;;;;;22.00;14.05;;;18.90;99.90;;;;;;5062325;28;20039;-85
2023/05/23 02:43:03;;;;;;;26.42;14.77;;;18.90;99.90;;;;;;5073827;28;20021;-84
2023/05/23 02:45:28;;;;;;;28.75;15.43;;;18.90;99.90;;;;;;5074435;28;20469;-85
2023/05/23 02:47:54;;;;;;;24.17;14.25;;;18.90;99.90;;;;;;5075727;28;20025;-83
2023/05/23 02:50:19;;;;;;;21.77;14.15;;;18.90;99.90;;;;;;5076076;28;20051;-83
2023/05/23 02:52:45;;;;;;;25.90;15.05;;;18.90;99.90;;;;;;5075795;28;20032;-85
2023/05/23 02:55:10;;;;;;;26.10;15.20;;;18.90;99.90;;;;;;5075919;28;20100;-86
2023/05/23 02:57:36;;;;;;;27.38;16.05;;;18.90;99.90;;;;;;5092375;28;20039;-85
2023/05/23 03:00:02;;;;;;;32.38;17.67;;;18.90;99.90;;;;;;5076041;28;20028;-84
2023/05/23 03:02:27;;;;;;;32.20;17.98;;;18.90;99.90;;;;;;5075450;28;20389;-88
2023/05/23 03:04:54;;;;;;;31.08;18.55;;;18.90;99.90;;;;;;5076138;28;20434;-84
2023/05/23 03:07:20;;;;;;;35.55;18.80;;;19.00;99.90;;;;;;5092880;28;20376;-84
2023/05/23 03:09:46;;;;;;;33.33;19.58;;;19.00;99.90;;;;;;5075807;28;20025;-84
2023/05/23 03:12:11;;;;;;;30.33;18.67;;;18.90;99.90;;;;;;5092922;28;20115;-85
2023/05/23 03:14:37;;;;;;;37.25;19.60;;;18.90;99.90;;;;;;5092443;28;20466;-86
2023/05/23 03:17:03;;;;;;;33.30;19.30;;;18.90;99.90;;;;;;5076558;28;20062;-86
2023/05/23 03:19:28;;;;;;;35.50;20.02;;;18.90;99.90;;;;;;5075731;28;20032;-88
2023/05/23 03:21:54;;;;;;;33.13;19.02;;;18.90;99.90;;;;;;5075067;28;20017;-87
2023/05/23 03:24:19;;;;;;;36.33;20.27;;;18.90;99.90;;;;;;5076601;28;20133;-85
2023/05/23 03:26:45;;;;;;;35.08;19.50;;;18.80;99.90;;;;;;5091810;28;20382;-85
2023/05/23 03:29:10;;;;;;;43.20;20.70;;;18.90;99.90;;;;;;5076151;28;20021;-85
2023/05/23 03:31:36;;;;;;;36.85;20.10;;;18.80;99.90;;;;;;5091843;28;20082;-86
2023/05/23 03:34:04;;;;;;;34.05;20.35;;;18.80;99.90;;;;;;5076663;28;20090;-84
2023/05/23 03:36:32;;;;;;;36.33;19.85;;;18.80;99.90;;;;;;5074854;28;20024;-86
2023/05/23 03:38:57;;;;;;;38.00;21.25;;;18.70;99.90;;;;;;5075204;28;20063;-86
2023/05/23 03:41:23;;;;;;;33.40;18.98;;;18.70;99.90;;;;;;5074724;28;20024;-86
2023/05/23 03:43:48;;;;;;;33.63;19.52;;;18.80;99.90;;;;;;5074483;28;20028;-85
2023/05/23 03:46:14;;;;;;;33.72;19.05;;;18.80;99.90;;;;;;5074648;28;20462;-86
2023/05/23 03:48:40;;;;;;;30.50;19.00;;;18.90;99.90;;;;;;5074320;28;20029;-86
2023/05/23 03:51:06;;;;;;;38.20;19.45;;;18.90;99.90;;;;;;5075142;28;20120;-86
2023/05/23 03:53:31;;;;;;;34.75;19.35;;;18.90;99.90;;;;;;5074467;28;20032;-87
2023/05/23 03:55:57;;;;;;;32.38;18.90;;;18.90;99.90;;;;;;5074450;28;20195;-87
2023/05/23 03:58:23;;;;;;;31.70;18.58;;;19.00;99.90;;;;;;5074338;28;20025;-86
2023/05/23 04:00:48;;;;;;;32.20;18.50;;;18.90;99.90;;;;;;5073823;28;20048;-86
2023/05/23 04:03:16;;;;;;;30.17;19.70;;;18.80;99.90;;;;;;5075065;28;20116;-86
2023/05/23 04:05:41;;;;;;;39.53;19.95;;;18.80;99.90;;;;;;5075273;28;20373;-87
2023/05/23 04:08:08;;;;;;;33.42;19.23;;;18.80;99.90;;;;;;5075629;28;20100;-87
2023/05/23 04:10:34;;;;;;;33.03;19.90;;;18.80;99.90;;;;;;5074342;28;20024;-90
2023/05/23 04:12:59;;;;;;;33.60;19.13;;;18.80;99.90;;;;;;5074729;28;20078;-85
2023/05/23 04:15:26;;;;;;;31.80;19.30;;;18.70;99.90;;;;;;5067481;28;20123;-85
2023/05/23 04:17:52;;;;;;;31.05;18.10;;;18.70;99.90;;;;;;5055552;28;20229;-85
2023/05/23 04:20:18;;;;;;;33.13;19.35;;;18.80;99.90;;;;;;5055373;28;20481;-85
2023/05/23 04:22:44;;;;;;;35.05;19.33;;;18.80;99.90;;;;;;5054747;28;20389;-85
2023/05/23 04:25:10;;;;;;;32.78;19.27;;;18.80;99.90;;;;;;5055303;28;20033;-85
2023/05/23 04:27:39;;;;;;;30.63;17.67;;;18.80;99.90;;;;;;5054710;28;20028;-87
2023/05/23 04:30:08;;;;;;;33.22;18.77;;;18.90;99.90;;;;;;5054456;28;20116;-85
2023/05/23 04:32:34;;;;;;;32.72;18.85;;;18.80;99.90;;;;;;5038059;28;20025;-87
2023/05/23 04:35:00;;;;;;;33.00;19.92;;;18.80;99.90;;;;;;5054234;28;20166;-85
2023/05/23 04:37:26;;;;;;;30.70;18.58;;;18.70;99.90;;;;;;5054433;28;20505;-85
2023/05/23 04:39:52;;;;;;;34.70;19.20;;;18.80;99.90;;;;;;5053534;28;20049;-85
2023/05/23 04:42:23;;;;;;;32.78;18.40;;;18.80;99.90;;;;;;5054357;28;20060;-81
2023/05/23 04:44:49;;;;;;;31.75;19.08;;;18.70;99.90;;;;;;5053628;28;20040;-86
2023/05/23 04:47:15;;;;;;;28.23;17.67;;;18.70;99.90;;;;;;5054405;28;20032;-86
2023/05/23 04:49:41;;;;;;;28.90;17.30;;;18.80;99.90;;;;;;5053578;28;20021;-88
2023/05/23 04:52:06;;;;;;;32.10;18.23;;;18.80;99.90;;;;;;5054271;28;20028;-88
2023/05/23 04:54:32;;;;;;;29.42;18.27;;;18.80;99.90;;;;;;5053631;28;20484;-88
2023/05/23 04:56:58;;;;;;;32.40;17.83;;;18.70;99.90;;;;;;5053637;28;20473;-88
2023/05/23 04:59:23;;;;;;;28.73;16.90;;;18.80;99.90;;;;;;5053989;28;20078;-85
2023/05/23 05:01:49;;;;;;;26.88;17.15;;;18.80;99.90;;;;;;5053396;28;20398;-85
2023/05/23 05:04:14;;;;;;;28.42;16.67;;;18.80;99.90;;;;;;5053487;28;20033;-84
2023/05/23 05:06:40;;;;;;;30.13;17.85;;;18.90;99.90;;;;;;5054212;28;20017;-86
2023/05/23 05:09:06;;;;;;;26.63;16.83;;;18.90;99.90;;;;;;5053371;28;20029;-85
2023/05/23 05:11:32;;;;;;;25.23;15.38;;;19.00;99.90;;;;;;5054476;28;20473;-85
2023/05/23 05:13:57;;;;;;;24.02;15.30;;;19.00;99.90;;;;;;5052866;28;20018;-87
2023/05/23 05:16:23;;;;;;;27.27;15.73;;;19.00;99.90;;;;;;5053308;28;20123;-87
2023/05/23 05:18:48;;;;;;;24.40;15.15;;;19.00;99.90;;;;;;5066104;28;20040;-87
2023/05/23 05:21:14;;;;;;;25.98;15.63;;;19.00;99.90;;;;;;5074467;28;20029;-87
2023/05/23 05:23:40;;;;;;;23.10;14.85;;;19.00;99.90;;;;;;5072378;28;20028;-88
2023/05/23 05:26:07;;;;;;;24.35;15.65;;;19.10;99.90;;;;;;5073005;28;20036;-86
2023/05/23 05:28:32;;;;;;;25.95;15.05;;;19.00;99.90;;;;;;5073455;28;20028;-85
2023/05/23 05:30:58;;;;;;;23.83;14.25;;;19.00;99.90;;;;;;5072893;28;20016;-86
2023/05/23 05:33:23;;;;;;;24.23;14.48;;;19.00;99.90;;;;;;5073230;28;20047;-85
2023/05/23 05:35:50;;;;;;;19.35;13.30;;;19.00;99.90;;;;;;5072605;28;20105;-85
2023/05/23 05:38:16;;;;;;;20.80;12.82;;;18.90;99.90;;;;;;5073669;28;20028;-85
2023/05/23 05:40:42;;;;;;;18.27;12.95;;;18.90;99.90;;;;;;5073240;28;20047;-86
2023/05/23 05:43:08;;;;;;;19.40;12.85;;;18.90;99.90;;;;;;5072267;28;20037;-86
2023/05/23 05:45:34;;;;;;;21.10;13.40;;;18.90;99.90;;;;;;5073722;28;20028;-85
2023/05/23 05:48:00;;;;;;;18.38;12.60;;;19.00;99.90;;;;;;5072565;28;20034;-85
2023/05/23 05:50:25;;;;;;;19.42;13.02;;;19.00;99.90;;;;;;5073194;28;20024;-85
2023/05/23 05:52:51;;;;;;;19.80;12.20;;;19.00;99.90;;;;;;5073618;28;20028;-89
2023/05/23 05:55:17;;;;;;;19.80;12.40;;;19.00;99.90;;;;;;5072697;28;20420;-91
2023/05/23 05:57:42;;;;;;;19.48;13.13;;;19.00;99.90;;;;;;5073518;28;20017;-84
2023/05/23 06:00:17;;;;;;;22.00;12.65;;;19.10;99.90;;;;;;5072605;28;20036;-83
2023/05/23 06:02:46;;;;;;;17.17;10.93;;;19.10;99.90;;;;;;5072217;28;20053;-83
2023/05/23 06:05:12;;;;;;;20.65;11.75;;;19.20;99.90;;;;;;5072520;28;20028;-84
2023/05/23 06:07:39;;;;;;;19.98;11.45;;;19.20;99.90;;;;;;5072555;28;20139;-89
2023/05/23 06:10:06;;;;;;;17.05;10.75;;;19.30;99.90;;;;;;5072728;28;20120;-84
2023/05/23 06:12:32;;;;;;;18.95;10.57;;;19.30;99.90;;;;;;5072327;28;20032;-83
2023/05/23 06:14:58;;;;;;;16.00;10.38;;;19.20;99.90;;;;;;5071697;28;20523;-85
2023/05/23 06:17:23;;;;;;;16.33;10.35;;;19.20;99.90;;;;;;5072506;28;20032;-85
2023/05/23 06:19:49;;;;;;;17.52;10.65;;;19.10;99.90;;;;;;5073201;28;20024;-85
2023/05/23 06:22:14;;;;;;;15.07;8.90;;;19.10;99.90;;;;;;5076594;28;20025;-85
2023/05/23 06:24:40;;;;;;;17.40;10.48;;;19.20;99.90;;;;;;5075872;28;20067;-87
2023/05/23 06:27:06;;;;;;;16.48;10.15;;;19.20;99.90;;;;;;5076746;28;20040;-85
2023/05/23 06:29:31;;;;;;;12.48;8.93;;;19.30;99.90;;;;;;5077402;28;20029;-85
2023/05/23 06:31:57;;;;;;;14.35;9.35;;;19.30;99.90;;;;;;5075731;28;20035;-84
2023/05/23 06:34:22;;;;;;;14.32;9.20;;;19.30;99.90;;;;;;5076089;28;20461;-84
2023/05/23 06:36:48;;;;;;;11.38;7.90;;;19.20;99.90;;;;;;5076671;28;20033;-85
2023/05/23 06:39:14;;;;;;;12.73;8.02;;;19.20;99.90;;;;;;5076457;28;20051;-84
2023/05/23 06:41:40;;;;;;;11.75;7.82;;;19.20;99.90;;;;;;5075975;28;20031;-84
2023/05/23 06:44:05;;;;;;;13.60;8.60;;;19.10;99.90;;;;;;5075414;28;20373;-88
2023/05/23 06:46:31;;;;;;;12.90;7.80;;;19.00;99.90;;;;;;5077033;28;20021;-84
2023/05/23 06:48:57;;;;;;;12.25;7.78;;;18.90;99.90;;;;;;5075783;28;20029;-85
2023/05/23 06:51:23;;;;;;;14.25;8.15;;;18.80;99.90;;;;;;5076247;28;20523;-85
2023/05/23 06:53:49;;;;;;;13.80;8.57;;;18.90;99.90;;;;;;5075401;28;20021;-85
2023/05/23 06:56:14;;;;;;;11.68;7.35;;;19.00;99.90;;;;;;5076692;28;20040;-84
2023/05/23 06:58:40;;;;;;;17.52;8.40;;;18.90;99.90;;;;;;5075979;28;20020;-87
2023/05/23 07:01:06;;;;;;;11.43;8.20;;;19.00;99.90;;;;;;5075258;28;20053;-87
2023/05/23 07:03:32;;;;;;;12.98;7.18;;;18.90;99.90;;;;;;5075717;28;20032;-84
2023/05/23 07:05:57;;;;;;;12.05;7.60;;;18.90;99.90;;;;;;5075067;28;20045;-84
2023/05/23 07:08:23;;;;;;;11.60;7.78;;;18.80;99.90;;;;;;5075863;28;20050;-85
2023/05/23 07:10:49;;;;;;;12.57;7.90;;;18.80;99.90;;;;;;5075096;28;20031;-85
2023/05/23 07:13:15;;;;;;;16.55;8.55;;;18.80;99.90;;;;;;5076496;28;20032;-85
2023/05/23 07:15:40;;;;;;;14.75;8.73;;;18.80;99.90;;;;;;5074784;28;20024;-85
2023/05/23 07:18:06;;;;;;;13.88;8.32;;;18.70;99.90;;;;;;5073123;28;20029;-84
2023/05/23 07:20:33;;;;;;;13.73;8.90;;;18.70;99.90;;;;;;5056761;28;20021;-84
2023/05/23 07:22:59;;;;;;;14.68;8.82;;;18.70;99.90;;;;;;5055680;28;20064;-83
2023/05/23 07:25:25;;;;;;;14.27;8.35;;;18.80;99.90;;;;;;5055119;28;20033;-83
2023/05/23 07:27:53;;;;;;;13.40;9.13;;;18.90;99.90;;;;;;5055921;28;20043;-85
2023/05/23 07:30:21;;;;;;;15.30;8.98;;;18.90;99.90;;;;;;5055176;28;20434;-86
2023/05/23 07:32:47;;;;;;;14.07;8.90;;;18.90;99.90;;;;;;5068829;28;20064;-88
2023/05/23 07:35:16;;;;;;;14.80;9.27;;;19.00;99.90;;;;;;5074917;28;20051;-85
2023/05/23 07:37:41;;;;;;;12.88;9.02;;;19.10;99.90;;;;;;5074633;28;20025;-84
2023/05/23 07:40:10;;;;;;;12.65;8.15;;;19.20;99.90;;;;;;5064231;28;20040;-84
2023/05/23 07:42:36;;;;;;;13.65;8.77;;;19.20;99.90;;;;;;5074327;28;20057;-87
2023/05/23 07:45:02;;;;;;;15.52;9.43;;;19.20;99.90;;;;;;5075283;28;20025;-83
2023/05/23 07:47:28;;;;;;;15.30;9.38;;;19.20;99.90;;;;;;5072096;28;20381;-86
2023/05/23 07:49:54;;;;;;;14.93;8.93;;;19.30;99.90;;;;;;5061078;28;20029;-84
2023/05/23 07:52:20;;;;;;;14.35;9.13;;;19.30;99.90;;;;;;5074454;28;20074;-84
2023/05/23 07:54:45;;;;;;;12.50;8.50;;;19.30;99.90;;;;;;5072610;28;20032;-82
2023/05/23 07:57:11;;;;;;;16.23;9.32;;;19.20;99.90;;;;;;5066660;28;20067;-86
2023/05/23 07:59:37;;;;;;;14.07;8.18;;;19.20;99.90;;;;;;5063589;28;20029;-86
2023/05/23 08:02:03;;;;;;;12.23;8.80;;;19.20;99.90;;;;;;5064505;28;20064;-82
2023/05/23 08:04:29;;;;;;;16.80;8.75;;;19.20;99.90;;;;;;5061623;28;20025;-84
2023/05/23 08:06:55;;;;;;;11.20;7.18;;;19.20;99.90;;;;;;5060866;28;20029;-86
2023/05/23 08:09:22;;;;;;;12.23;7.95;;;19.30;99.90;;;;;;5058403;28;20029;-87
2023/05/23 08:11:48;;;;;;;12.98;7.95;;;19.30;99.90;;;;;;5069276;28;20120;-88
2023/05/23 08:14:13;;;;;;;13.63;7.00;;;19.40;99.90;;;;;;5064292;28;20071;-87
2023/05/23 08:16:55;;;;;;;;;;;;;;;;;;;;;
2023/05/23 08:19:24;;;;;;;10.90;7.28;;;19.30;99.90;;;;;;5073875;28;20080;-89
2023/05/23 08:21:51;;;;;;;11.00;7.28;;;19.30;99.90;;;;;;5054977;28;20033;-90
2023/05/23 08:24:20;;;;;;;10.15;6.60;;;19.40;99.90;;;;;;5064672;28;20078;-90
2023/05/23 08:26:52;;;;;;;12.00;6.95;;;19.40;99.90;;;;;;5074840;28;20480;-94
2023/05/23 08:29:20;;;;;;;11.10;6.97;;;19.40;99.90;;;;;;5059961;28;20036;-89
2023/05/23 08:31:49;;;;;;;12.30;6.72;;;19.50;99.90;;;;;;5072014;28;20045;-90
2023/05/23 08:34:17;;;;;;;10.18;6.68;;;19.50;99.90;;;;;;5087626;28;20035;-89
2023/05/23 08:36:43;;;;;;;12.20;5.95;;;19.50;99.90;;;;;;5060950;28;20043;-87
2023/05/23 08:39:09;;;;;;;17.38;6.05;;;19.60;99.90;;;;;;5073403;28;20029;-85
2023/05/23 08:41:35;;;;;;;9.27;5.50;;;19.60;99.90;;;;;;5073883;28;20021;-85
2023/05/23 08:44:00;;;;;;;8.77;5.47;;;19.70;99.90;;;;;;5073221;28;20035;-90
2023/05/23 08:46:26;;;;;;;8.85;5.85;;;19.60;99.90;;;;;;5073922;28;20025;-87
2023/05/23 08:48:53;;;;;;;7.15;4.60;;;19.70;99.90;;;;;;5073584;28;20130;-89
2023/05/23 08:51:25;;;;;;;5.82;4.43;;;19.80;99.90;;;;;;5074186;28;20035;-89
2023/05/23 08:53:52;;;;;;;;;;;19.70;99.90;;;;;;5074302;28;20060;-91
2023/05/23 08:56:19;;;;;;;5.32;3.70;;;19.70;99.90;;;;;;5074680;28;19924;-91
2023/05/23 08:58:46;;;;;;;5.57;4.47;;;19.70;99.90;;;;;;5073417;28;20024;-91
2023/05/23 09:01:13;;;;;;;7.32;5.38;;;19.80;99.90;;;;;;5053860;28;20128;-89
2023/05/23 09:03:41;;;;;;;7.28;4.50;;;19.70;99.90;;;;;;5054143;28;20115;-91
2023/05/23 09:06:08;;;;;;;6.95;3.97;;;19.70;99.90;;;;;;5058890;28;20025;-91
2023/05/23 09:08:34;;;;;;;6.65;3.97;;;19.70;99.90;;;;;;5057036;28;20032;-90
2023/05/23 09:11:04;;;;;;;6.57;3.83;;;19.80;99.90;;;;;;5052941;28;20470;-90
2023/05/23 09:13:31;;;;;;;5.88;4.18;;;19.90;99.90;;;;;;5054421;28;20454;-93
2023/05/23 09:16:04;;;;;;;5.32;3.83;;;20.00;99.90;;;;;;5068820;28;20036;-89
2023/05/23 09:18:40;;;;;;;5.57;3.78;;;20.00;99.90;;;;;;5058096;28;20020;-90
2023/05/23 09:21:07;;;;;;;4.50;3.40;;;20.00;99.90;;;;;;5071411;28;20024;-92
2023/05/23 09:23:34;;;;;;;5.15;3.80;;;20.10;99.90;;;;;;5074441;28;20016;-94
2023/05/23 09:26:04;;;;;;;4.93;3.30;;;20.20;99.90;;;;;;5065210;28;20089;-91
2023/05/23 09:28:32;;;;;;;4.85;3.50;;;20.10;99.90;;;;;;5053207;28;20057;-88
2023/05/23 09:31:02;;;;;;;6.53;3.63;;;20.00;99.90;;;;;;5071343;28;20523;-91
2023/05/23 09:33:49;;;;;;;4.32;3.05;;;20.00;99.90;;;;;;5072841;28;20042;-87
2023/05/23 09:36:15;;;;;;;4.93;2.70;;;20.10;99.90;;;;;;5052394;28;20136;-88
2023/05/23 09:38:43;;;;;;;3.85;2.85;;;20.20;99.90;;;;;;5065095;28;20029;-93
2023/05/23 09:41:13;;;;;;;2.72;2.50;;;20.20;99.90;;;;;;5064909;28;20039;-92
2023/05/23 09:43:39;;;;;;;2.22;2.03;;;20.30;99.90;;;;;;5064690;28;20031;-91
2023/05/23 09:46:12;;;;;;;4.28;2.60;;;20.30;99.90;;;;;;5066270;28;20040;-89
2023/05/23 09:48:38;;;;;;;2.95;2.20;;;20.30;99.90;;;;;;5092398;28;20135;-88
2023/05/23 09:51:05;;;;;;;8.35;2.55;;;20.30;99.90;;;;;;5074509;28;20044;-87
2023/05/23 09:53:30;;;;;;;3.00;2.35;;;20.30;99.90;;;;;;5079549;28;20035;-88
2023/05/23 09:55:58;;;;;;;3.00;2.35;;;20.20;99.90;;;;;;5068755;28;20068;-90
2023/05/23 09:58:26;;;;;;;3.35;2.25;;;20.20;99.90;;;;;;5063451;28;20119;-89
2023/05/23 10:00:55;;;;;;;3.83;2.40;;;20.20;99.90;;;;;;5060953;28;20052;-88
2023/05/23 10:03:29;;;;;;;2.90;2.60;;;20.00;99.90;;;;;;5067419;28;20059;-89
2023/05/23 10:06:00;;;;;;;3.00;2.50;;;19.80;99.90;;;;;;5067657;28;20443;-92
2023/05/23 10:08:32;;;;;;;3.35;2.75;;;19.70;99.90;;;;;;5065502;28;20025;-88
2023/05/23 10:11:13;;;;;;;3.38;2.70;;;19.60;99.90;;;;;;5072391;28;20468;-91
2023/05/23 10:13:44;;;;;;;3.97;2.50;;;19.70;99.90;;;;;;5077333;28;20098;-88
2023/05/23 10:16:19;;;;;;;2.92;2.28;;;19.80;99.90;;;;;;5069840;28;20035;-89
2023/05/23 10:18:51;;;;;;;3.47;2.33;;;20.10;99.90;;;;;;5071826;28;20051;-88
2023/05/23 10:21:30;;;;;;;2.95;2.17;;;20.40;99.90;;;;;;5066722;28;20032;-87
2023/05/23 10:23:59;;;;;;;3.90;2.50;;;20.40;99.90;;;;;;5060805;28;20039;-87
2023/05/23 10:26:27;;;;;;;3.88;2.25;;;20.50;99.90;;;;;;5073132;28;20093;-86
2023/05/23 10:28:53;;;;;;;5.13;2.22;;;20.50;99.90;;;;;;5062382;28;20047;-86
2023/05/23 10:31:19;;;;;;;3.38;2.05;;;20.50;99.90;;;;;;5056803;28;20028;-84
2023/05/23 10:33:57;;;;;;;3.45;2.40;;;20.30;99.90;;;;;;5057301;28;20036;-89
2023/05/23 10:36:33;;;;;;;3.70;2.30;;;20.20;99.90;;;;;;5074468;28;20037;-86
2023/05/23 10:39:27;;;;;;;2.63;2.42;;;20.10;99.90;;;;;;5068330;28;20029;-87
2023/05/23 10:42:00;;;;;;;3.47;2.75;;;20.20;99.90;;;;;;5064729;28;20036;-88
2023/05/23 10:44:29;;;;;;;2.35;2.10;;;20.40;99.90;;;;;;5067299;28;20033;-82
2023/05/23 10:46:57;;;;;;;3.08;2.47;;;20.70;99.90;;;;;;5061814;28;20052;-90
2023/05/23 10:49:45;;;;;;;3.90;2.30;;;20.80;99.90;;;;;;5068716;28;20029;-89
2023/05/23 10:52:13;;;;;;;3.17;2.20;;;20.90;99.90;;;;;;5076015;28;20027;-87
2023/05/23 10:54:57;;;;;;;3.60;2.28;;;20.90;99.90;;;;;;5076013;28;20476;-95
2023/05/23 10:57:28;;;;;;;6.45;3.17;;;20.90;99.90;;;;;;5084325;28;20033;-92
2023/05/23 10:59:55;;;;;;;2.50;1.75;;;20.90;99.90;;;;;;5061353;28;20038;-85
2023/05/23 11:02:28;;;;;;;3.95;2.42;;;20.90;99.90;;;;;;5092738;28;20141;-94
2023/05/23 11:05:23;;;;;;;3.85;2.30;;;20.90;99.90;;;;;;5075114;28;20035;-89
2023/05/23 11:08:12;;;;;;;3.92;2.97;;;20.90;99.90;;;;;;5069779;28;20045;-88
2023/05/23 11:11:00;;;;;;;2.55;2.10;;;20.90;99.90;;;;;;5062514;28;20032;-90
2023/05/23 11:13:51;;;;;;;2.33;2.10;;;21.00;99.90;;;;;;5065641;28;20021;-89
2023/05/23 11:16:40;;;;;;;2.45;2.13;;;21.10;99.90;;;;;;5076519;28;20032;-87
2023/05/23 11:19:21;;;;;;;2.75;2.28;;;21.10;99.90;;;;;;5075424;28;20043;-89
2023/05/23 11:22:00;;;;;;;4.35;2.10;;;21.40;99.90;;;;;;5055444;28;20116;-94
2023/05/23 11:24:50;;;;;;;2.78;1.90;;;21.50;99.90;;;;;;5071752;28;20039;-85
2023/05/23 11:27:24;;;;;;;2.58;1.95;;;21.60;99.90;;;;;;5074806;28;20043;-90
2023/05/23 11:29:56;;;;;;;2.10;1.90;;;21.70;99.40;;;;;;5069649;28;20033;-87
2023/05/23 11:32:22;;;;;;;4.00;2.15;;;21.70;99.90;;;;;;5072661;28;20071;-84
2023/05/23 11:34:48;;;;;;;4.50;1.98;;;21.80;99.90;;;;;;5054605;28;20419;-85
2023/05/23 11:37:14;;;;;;;2.45;2.08;;;21.70;99.40;;;;;;5072426;28;20037;-87
2023/05/23 11:39:39;;;;;;;2.08;1.80;;;21.60;99.10;;;;;;5075030;28;20354;-86
2023/05/23 11:42:05;;;;;;;6.40;2.10;;;21.50;99.70;;;;;;5074335;28;20130;-89
2023/05/23 11:44:31;;;;;;;3.47;2.22;;;21.40;99.90;;;;;;5065792;28;20033;-89
2023/05/23 11:47:05;;;;;;;4.13;1.85;;;21.30;99.70;;;;;;5063864;28;20028;-88
2023/05/23 11:49:36;;;;;;;2.25;1.98;;;21.20;99.90;;;;;;5069640;28;20118;-90
2023/05/23 11:52:03;;;;;;;2.05;1.70;;;21.00;99.90;;;;;;5066030;28;20048;-89
2023/05/23 11:54:29;;;;;;;2.42;2.10;;;20.80;99.90;;;;;;5058662;28;20569;-88
2023/05/23 11:56:56;;;;;;;2.33;1.55;;;20.70;99.90;;;;;;5064313;28;20120;-90
2023/05/23 11:59:24;;;;;;;2.33;2.13;;;20.60;99.90;;;;;;5063107;28;20036;-88
2023/05/23 12:01:51;;;;;;;1.85;1.52;;;20.60;99.90;;;;;;5070040;28;20048;-86
2023/05/23 12:04:16;;;;;;;2.92;1.80;;;20.70;99.90;;;;;;5055976;28;20032;-87
2023/05/23 12:06:47;;;;;;;5.65;2.03;;;20.80;99.90;;;;;;5056180;28;20021;-87
2023/05/23 12:09:13;;;;;;;2.72;1.80;;;20.80;99.90;;;;;;5070903;28;20134;-86
2023/05/23 12:11:40;;;;;;;2.53;1.45;;;20.70;99.90;;;;;;5058349;28;20447;-87
2023/05/23 12:14:06;;;;;;;2.38;1.92;;;20.70;99.90;;;;;;5073258;28;20051;-87
2023/05/23 12:16:32;;;;;;;3.05;2.13;;;20.80;99.90;;;;;;5091416;28;20074;-94
2023/05/23 12:19:00;;;;;;;2.80;2.30;;;20.90;99.90;;;;;;5072258;28;20020;-90
2023/05/23 12:21:26;;;;;;;3.13;2.10;;;20.90;99.90;;;;;;5064034;28;20033;-90
2023/05/23 12:23:52;;;;;;;2.97;2.20;;;21.00;99.70;;;;;;5078294;28;20035;-93
2023/05/23 12:26:17;;;;;;;3.42;2.25;;;21.00;99.80;;;;;;5068840;28;20037;-92
2023/05/23 12:28:44;;;;;;;2.38;2.10;;;21.10;99.90;;;;;;5078337;28;20091;-92
2023/05/23 12:31:21;;;;;;;2.45;2.20;;;21.10;99.60;;;;;;5061164;28;20036;-89
2023/05/23 12:33:47;;;;;;;4.18;2.30;;;21.30;99.30;;;;;;5063416;28;20074;-93
2023/05/23 12:36:24;;;;;;;2.75;2.08;;;21.30;99.50;;;;;;5064872;28;20032;-94
2023/05/23 12:38:49;;;;;;;8.20;2.50;;;21.40;99.20;;;;;;5065991;28;20155;-89